sensor_id;sensor_type;location;lat;lon;timestamp;temperature;humidity
10678;DHT22;5387;48.722;9.110;2024-01-16T00:00:24;-1.70;99.90
10678;DHT22;5387;48.722;9.110;2024-01-16T00:02:51;-1.70;99.90
10678;DHT22;5387;48.722;9.110;2024-01-16T00:05:19;-1.70;99.90
10678;DHT22;5387;48.722;9.110;2024-01-16T00:07:46;-1.70;99.90
10678;DHT22;5387;48.722;9.110;2024-01-16T00:10:13;-1.60;99.90
10678;DHT22;5387;48.722;9.110;2024-01-16T00:12:40;-1.60;99.90
10678;DHT22;5387;48.722;9.110;2024-01-16T00:15:08;-1.60;99.90
10678;DHT22;5387;48.722;9.110;2024-01-16T00:17:35;-1.60;99.90
10678;DHT22;5387;48.722;9.110;2024-01-16T00:20:02;-1.70;99.90
10678;DHT22;5387;48.722;9.110;2024-01-16T00:22:32;-1.70;99.90
10678;DHT22;5387;48.722;9.110;2024-01-16T00:24:58;-1.80;99.90
10678;DHT22;5387;48.722;9.110;2024-01-16T00:27:25;-1.80;99.90
10678;DHT22;5387;48.722;9.110;2024-01-16T00:29:52;-1.80;99.90
10678;DHT22;5387;48.722;9.110;2024-01-16T00:32:19;-1.80;99.90
10678;DHT22;5387;48.722;9.110;2024-01-16T00:34:46;-1.80;99.90
10678;DHT22;5387;48.722;9.110;2024-01-16T00:37:13;-1.80;99.90
10678;DHT22;5387;48.722;9.110;2024-01-16T00:39:41;-1.80;99.90
10678;DHT22;5387;48.722;9.110;2024-01-16T00:42:08;-1.70;99.90
10678;DHT22;5387;48.722;9.110;2024-01-16T00:44:34;-1.70;99.90
10678;DHT22;5387;48.722;9.110;2024-01-16T00:47:01;-1.70;99.90
10678;DHT22;5387;48.722;9.110;2024-01-16T00:49:28;-1.70;99.90
10678;DHT22;5387;48.722;9.110;2024-01-16T00:51:55;-1.70;99.90
10678;DHT22;5387;48.722;9.110;2024-01-16T00:54:21;-1.70;99.90
10678;DHT22;5387;48.722;9.110;2024-01-16T00:56:50;-1.70;99.90
10678;DHT22;5387;48.722;9.110;2024-01-16T00:59:20;-1.70;99.90
10678;DHT22;5387;48.722;9.110;2024-01-16T01:01:47;-1.60;99.90
10678;DHT22;5387;48.722;9.110;2024-01-16T01:04:14;-1.60;99.90
10678;DHT22;5387;48.722;9.110;2024-01-16T01:06:41;-1.60;99.90
10678;DHT22;5387;48.722;9.110;2024-01-16T01:09:08;-1.60;99.90
10678;DHT22;5387;48.722;9.110;2024-01-16T01:11:37;-1.60;99.90
10678;DHT22;5387;48.722;9.110;2024-01-16T01:14:05;-1.60;99.90
10678;DHT22;5387;48.722;9.110;2024-01-16T01:16:32;-1.60;99.90
10678;DHT22;5387;48.722;9.110;2024-01-16T01:18:59;-1.60;99.90
10678;DHT22;5387;48.722;9.110;2024-01-16T01:21:26;-1.60;99.90
10678;DHT22;5387;48.722;9.110;2024-01-16T01:23:53;-1.60;99.90
10678;DHT22;5387;48.722;9.110;2024-01-16T01:26:20;-1.60;99.90
10678;DHT22;5387;48.722;9.110;2024-01-16T01:28:46;-1.60;99.90
10678;DHT22;5387;48.722;9.110;2024-01-16T01:31:15;-1.60;99.90
10678;DHT22;5387;48.722;9.110;2024-01-16T01:33:41;-1.60;99.90
10678;DHT22;5387;48.722;9.110;2024-01-16T01:36:09;-1.60;99.90
10678;DHT22;5387;48.722;9.110;2024-01-16T01:38:35;-1.60;99.90
10678;DHT22;5387;48.722;9.110;2024-01-16T01:41:02;-1.60;99.90
10678;DHT22;5387;48.722;9.110;2024-01-16T01:43:29;-1.50;99.90
10678;DHT22;5387;48.722;9.110;2024-01-16T01:46:09;-1.60;99.90
10678;DHT22;5387;48.722;9.110;2024-01-16T01:48:38;-1.60;99.90
10678;DHT22;5387;48.722;9.110;2024-01-16T01:51:06;-1.50;99.90
10678;DHT22;5387;48.722;9.110;2024-01-16T01:53:33;-1.50;99.90
10678;DHT22;5387;48.722;9.110;2024-01-16T01:56:03;-1.50;99.90
10678;DHT22;5387;48.722;9.110;2024-01-16T01:58:31;-1.50;99.90
10678;DHT22;5387;48.722;9.110;2024-01-16T02:00:59;-1.50;99.90
10678;DHT22;5387;48.722;9.110;2024-01-16T02:03:27;-1.50;99.90
10678;DHT22;5387;48.722;9.110;2024-01-16T02:05:56;-1.50;99.90
10678;DHT22;5387;48.722;9.110;2024-01-16T02:08:24;-1.50;99.90
10678;DHT22;5387;48.722;9.110;2024-01-16T02:10:51;-1.50;99.90
10678;DHT22;5387;48.722;9.110;2024-01-16T02:13:19;-1.50;99.90
10678;DHT22;5387;48.722;9.110;2024-01-16T02:15:49;-1.50;99.90
10678;DHT22;5387;48.722;9.110;2024-01-16T02:18:16;-1.60;99.90
10678;DHT22;5387;48.722;9.110;2024-01-16T02:20:42;-1.60;99.90
10678;DHT22;5387;48.722;9.110;2024-01-16T02:23:13;-1.60;99.90
10678;DHT22;5387;48.722;9.110;2024-01-16T02:25:42;-1.60;99.90
10678;DHT22;5387;48.722;9.110;2024-01-16T02:28:09;-1.60;99.90
10678;DHT22;5387;48.722;9.110;2024-01-16T02:30:36;-1.60;99.90
10678;DHT22;5387;48.722;9.110;2024-01-16T02:33:03;-1.60;99.90
10678;DHT22;5387;48.722;9.110;2024-01-16T02:35:30;-1.70;99.90
10678;DHT22;5387;48.722;9.110;2024-01-16T02:37:57;-1.80;99.90
10678;DHT22;5387;48.722;9.110;2024-01-16T02:40:25;-1.90;99.90
10678;DHT22;5387;48.722;9.110;2024-01-16T02:42:54;-1.90;99.90
10678;DHT22;5387;48.722;9.110;2024-01-16T02:45:20;-1.90;99.90
10678;DHT22;5387;48.722;9.110;2024-01-16T02:47:47;-2.00;99.90
10678;DHT22;5387;48.722;9.110;2024-01-16T02:50:14;-2.00;99.90
10678;DHT22;5387;48.722;9.110;2024-01-16T02:52:41;-2.00;99.90
10678;DHT22;5387;48.722;9.110;2024-01-16T02:55:08;-2.00;99.90
10678;DHT22;5387;48.722;9.110;2024-01-16T02:57:35;-2.00;99.90
10678;DHT22;5387;48.722;9.110;2024-01-16T03:00:04;-2.10;99.90
10678;DHT22;5387;48.722;9.110;2024-01-16T03:02:31;-2.00;99.90
10678;DHT22;5387;48.722;9.110;2024-01-16T03:04:58;-2.10;99.90
10678;DHT22;5387;48.722;9.110;2024-01-16T03:07:25;-2.20;99.90
10678;DHT22;5387;48.722;9.110;2024-01-16T03:09:51;-2.20;99.90
10678;DHT22;5387;48.722;9.110;2024-01-16T03:12:18;-2.20;99.90
10678;DHT22;5387;48.722;9.110;2024-01-16T03:14:45;-2.30;99.90
10678;DHT22;5387;48.722;9.110;2024-01-16T03:17:13;-2.30;99.90
10678;DHT22;5387;48.722;9.110;2024-01-16T03:19:40;-2.40;99.90
10678;DHT22;5387;48.722;9.110;2024-01-16T03:22:09;-2.40;99.90
10678;DHT22;5387;48.722;9.110;2024-01-16T03:24:36;-2.40;99.90
10678;DHT22;5387;48.722;9.110;2024-01-16T03:27:03;-2.50;99.90
10678;DHT22;5387;48.722;9.110;2024-01-16T03:29:30;-2.60;99.90
10678;DHT22;5387;48.722;9.110;2024-01-16T03:31:58;-2.60;99.90
10678;DHT22;5387;48.722;9.110;2024-01-16T03:34:27;-2.70;99.90
10678;DHT22;5387;48.722;9.110;2024-01-16T03:36:54;-2.70;99.90
10678;DHT22;5387;48.722;9.110;2024-01-16T03:39:21;-2.70;99.90
10678;DHT22;5387;48.722;9.110;2024-01-16T03:41:48;-2.80;99.90
10678;DHT22;5387;48.722;9.110;2024-01-16T03:44:15;-2.70;99.90
10678;DHT22;5387;48.722;9.110;2024-01-16T03:46:41;-2.70;99.90
10678;DHT22;5387;48.722;9.110;2024-01-16T03:49:08;-2.80;99.90
10678;DHT22;5387;48.722;9.110;2024-01-16T03:51:36;-2.90;99.90
10678;DHT22;5387;48.722;9.110;2024-01-16T03:54:03;-2.90;99.90
10678;DHT22;5387;48.722;9.110;2024-01-16T03:56:30;-2.90;99.90
10678;DHT22;5387;48.722;9.110;2024-01-16T03:58:57;-2.90;99.90
10678;DHT22;5387;48.722;9.110;2024-01-16T04:01:30;-2.90;99.90
10678;DHT22;5387;48.722;9.110;2024-01-16T04:03:57;-2.90;99.90
10678;DHT22;5387;48.722;9.110;2024-01-16T04:06:24;-2.90;99.90
10678;DHT22;5387;48.722;9.110;2024-01-16T04:08:53;-3.00;99.90
10678;DHT22;5387;48.722;9.110;2024-01-16T04:11:20;-2.90;99.90
10678;DHT22;5387;48.722;9.110;2024-01-16T04:13:46;-2.90;99.90
10678;DHT22;5387;48.722;9.110;2024-01-16T04:16:13;-3.00;99.90
10678;DHT22;5387;48.722;9.110;2024-01-16T04:18:42;-3.00;99.90
10678;DHT22;5387;48.722;9.110;2024-01-16T04:21:09;-3.00;99.90
10678;DHT22;5387;48.722;9.110;2024-01-16T04:23:37;-3.10;99.90
10678;DHT22;5387;48.722;9.110;2024-01-16T04:26:05;-3.00;99.90
10678;DHT22;5387;48.722;9.110;2024-01-16T04:28:33;-3.00;99.90
10678;DHT22;5387;48.722;9.110;2024-01-16T04:31:00;-3.10;99.90
10678;DHT22;5387;48.722;9.110;2024-01-16T04:33:27;-3.10;99.90
10678;DHT22;5387;48.722;9.110;2024-01-16T04:35:54;-3.00;99.90
10678;DHT22;5387;48.722;9.110;2024-01-16T04:38:21;-3.00;99.90
10678;DHT22;5387;48.722;9.110;2024-01-16T04:40:47;-3.00;99.90
10678;DHT22;5387;48.722;9.110;2024-01-16T04:43:16;-3.00;99.90
10678;DHT22;5387;48.722;9.110;2024-01-16T04:45:42;-3.00;99.90
10678;DHT22;5387;48.722;9.110;2024-01-16T04:48:09;-3.00;99.90
10678;DHT22;5387;48.722;9.110;2024-01-16T04:50:36;-3.00;99.90
10678;DHT22;5387;48.722;9.110;2024-01-16T04:53:03;-3.10;99.90
10678;DHT22;5387;48.722;9.110;2024-01-16T04:55:30;-3.10;99.90
10678;DHT22;5387;48.722;9.110;2024-01-16T04:57:57;-3.10;99.90
10678;DHT22;5387;48.722;9.110;2024-01-16T05:00:26;-3.10;99.90
10678;DHT22;5387;48.722;9.110;2024-01-16T05:02:53;-3.10;99.90
10678;DHT22;5387;48.722;9.110;2024-01-16T05:05:20;-3.10;99.90
10678;DHT22;5387;48.722;9.110;2024-01-16T05:07:47;-3.20;99.90
10678;DHT22;5387;48.722;9.110;2024-01-16T05:10:14;-3.20;99.90
10678;DHT22;5387;48.722;9.110;2024-01-16T05:12:41;-3.20;99.90
10678;DHT22;5387;48.722;9.110;2024-01-16T05:15:09;-3.20;99.90
10678;DHT22;5387;48.722;9.110;2024-01-16T05:17:39;-3.20;99.90
10678;DHT22;5387;48.722;9.110;2024-01-16T05:20:07;-3.20;99.90
10678;DHT22;5387;48.722;9.110;2024-01-16T05:22:34;-3.30;99.90
10678;DHT22;5387;48.722;9.110;2024-01-16T05:25:01;-3.30;99.90
10678;DHT22;5387;48.722;9.110;2024-01-16T05:27:27;-3.30;99.90
10678;DHT22;5387;48.722;9.110;2024-01-16T05:29:54;-3.30;99.90
10678;DHT22;5387;48.722;9.110;2024-01-16T05:32:21;-3.40;99.90
10678;DHT22;5387;48.722;9.110;2024-01-16T05:34:49;-3.50;99.90
10678;DHT22;5387;48.722;9.110;2024-01-16T05:37:16;-3.70;99.90
10678;DHT22;5387;48.722;9.110;2024-01-16T05:39:43;-3.70;99.90
10678;DHT22;5387;48.722;9.110;2024-01-16T05:42:09;-3.70;99.90
10678;DHT22;5387;48.722;9.110;2024-01-16T05:44:37;-3.70;99.90
10678;DHT22;5387;48.722;9.110;2024-01-16T05:47:04;-3.70;99.90
10678;DHT22;5387;48.722;9.110;2024-01-16T05:49:31;-3.70;99.90
10678;DHT22;5387;48.722;9.110;2024-01-16T05:51:59;-3.60;99.90
10678;DHT22;5387;48.722;9.110;2024-01-16T05:54:26;-3.60;99.90
10678;DHT22;5387;48.722;9.110;2024-01-16T05:56:54;-3.50;99.90
10678;DHT22;5387;48.722;9.110;2024-01-16T05:59:21;-3.50;99.90
10678;DHT22;5387;48.722;9.110;2024-01-16T06:01:47;-3.40;99.90
10678;DHT22;5387;48.722;9.110;2024-01-16T06:04:15;-3.40;99.90
10678;DHT22;5387;48.722;9.110;2024-01-16T06:06:42;-3.30;99.90
10678;DHT22;5387;48.722;9.110;2024-01-16T06:09:12;-3.40;99.90
10678;DHT22;5387;48.722;9.110;2024-01-16T06:11:40;-3.40;99.90
10678;DHT22;5387;48.722;9.110;2024-01-16T06:14:07;-3.40;99.90
10678;DHT22;5387;48.722;9.110;2024-01-16T06:16:34;-3.40;99.90
10678;DHT22;5387;48.722;9.110;2024-01-16T06:19:01;-3.40;99.90
10678;DHT22;5387;48.722;9.110;2024-01-16T06:21:28;-3.50;99.90
10678;DHT22;5387;48.722;9.110;2024-01-16T06:23:55;-3.50;99.90
10678;DHT22;5387;48.722;9.110;2024-01-16T06:26:23;-3.60;99.90
10678;DHT22;5387;48.722;9.110;2024-01-16T06:28:50;-3.60;99.90
10678;DHT22;5387;48.722;9.110;2024-01-16T06:31:17;-3.50;99.90
10678;DHT22;5387;48.722;9.110;2024-01-16T06:33:44;-3.60;99.90
10678;DHT22;5387;48.722;9.110;2024-01-16T06:36:10;-3.60;99.90
10678;DHT22;5387;48.722;9.110;2024-01-16T06:38:38;-3.60;99.90
10678;DHT22;5387;48.722;9.110;2024-01-16T06:41:05;-3.70;99.90
10678;DHT22;5387;48.722;9.110;2024-01-16T06:43:34;-3.70;99.90
10678;DHT22;5387;48.722;9.110;2024-01-16T06:46:00;-3.70;99.90
10678;DHT22;5387;48.722;9.110;2024-01-16T06:48:27;-3.40;99.90
10678;DHT22;5387;48.722;9.110;2024-01-16T06:50:54;-3.70;99.90
10678;DHT22;5387;48.722;9.110;2024-01-16T06:53:21;-3.70;99.90
10678;DHT22;5387;48.722;9.110;2024-01-16T06:55:48;-3.60;99.90
10678;DHT22;5387;48.722;9.110;2024-01-16T06:58:14;-3.60;99.90
10678;DHT22;5387;48.722;9.110;2024-01-16T07:00:42;-3.70;99.90
10678;DHT22;5387;48.722;9.110;2024-01-16T07:03:10;-3.50;99.90
10678;DHT22;5387;48.722;9.110;2024-01-16T07:05:37;-3.50;99.90
10678;DHT22;5387;48.722;9.110;2024-01-16T07:08:04;-3.50;99.90
10678;DHT22;5387;48.722;9.110;2024-01-16T07:10:30;-3.50;99.90
10678;DHT22;5387;48.722;9.110;2024-01-16T07:12:57;-3.60;99.90
10678;DHT22;5387;48.722;9.110;2024-01-16T07:15:24;-3.60;99.90
10678;DHT22;5387;48.722;9.110;2024-01-16T07:17:52;-3.70;99.90
10678;DHT22;5387;48.722;9.110;2024-01-16T07:20:19;-3.70;99.90
10678;DHT22;5387;48.722;9.110;2024-01-16T07:22:46;-3.70;99.90
10678;DHT22;5387;48.722;9.110;2024-01-16T07:25:13;-3.70;99.90
10678;DHT22;5387;48.722;9.110;2024-01-16T07:27:40;-3.70;99.90
10678;DHT22;5387;48.722;9.110;2024-01-16T07:30:08;-3.60;99.90
10678;DHT22;5387;48.722;9.110;2024-01-16T07:32:35;-3.60;99.90
10678;DHT22;5387;48.722;9.110;2024-01-16T07:35:04;-3.60;99.90
10678;DHT22;5387;48.722;9.110;2024-01-16T07:37:31;-3.60;99.90
10678;DHT22;5387;48.722;9.110;2024-01-16T07:39:58;-3.60;99.90
10678;DHT22;5387;48.722;9.110;2024-01-16T07:42:24;-3.50;99.90
10678;DHT22;5387;48.722;9.110;2024-01-16T07:44:52;-3.50;99.90
10678;DHT22;5387;48.722;9.110;2024-01-16T07:47:20;-3.50;99.90
10678;DHT22;5387;48.722;9.110;2024-01-16T07:49:47;-3.50;99.90
10678;DHT22;5387;48.722;9.110;2024-01-16T07:52:15;-3.50;99.90
10678;DHT22;5387;48.722;9.110;2024-01-16T07:54:42;-3.50;99.90
10678;DHT22;5387;48.722;9.110;2024-01-16T07:57:09;-3.50;99.90
10678;DHT22;5387;48.722;9.110;2024-01-16T07:59:37;-3.50;99.90
10678;DHT22;5387;48.722;9.110;2024-01-16T08:02:04;-3.40;99.90
10678;DHT22;5387;48.722;9.110;2024-01-16T08:04:31;-3.30;99.90
10678;DHT22;5387;48.722;9.110;2024-01-16T08:06:58;-3.30;99.90
10678;DHT22;5387;48.722;9.110;2024-01-16T08:09:27;-3.20;99.90
10678;DHT22;5387;48.722;9.110;2024-01-16T08:11:54;-3.20;99.90
10678;DHT22;5387;48.722;9.110;2024-01-16T08:14:20;-3.10;99.90
10678;DHT22;5387;48.722;9.110;2024-01-16T08:16:47;-3.10;99.90
10678;DHT22;5387;48.722;9.110;2024-01-16T08:19:14;-3.00;99.90
10678;DHT22;5387;48.722;9.110;2024-01-16T08:21:41;-3.00;99.90
10678;DHT22;5387;48.722;9.110;2024-01-16T08:24:07;-2.90;99.90
10678;DHT22;5387;48.722;9.110;2024-01-16T08:26:36;-2.80;99.90
10678;DHT22;5387;48.722;9.110;2024-01-16T08:29:02;-2.80;99.90
10678;DHT22;5387;48.722;9.110;2024-01-16T08:31:30;-2.70;99.90
10678;DHT22;5387;48.722;9.110;2024-01-16T08:33:57;-2.60;99.90
10678;DHT22;5387;48.722;9.110;2024-01-16T08:36:24;-2.60;99.90
10678;DHT22;5387;48.722;9.110;2024-01-16T08:38:51;-2.50;99.90
10678;DHT22;5387;48.722;9.110;2024-01-16T08:41:17;-2.50;99.90
10678;DHT22;5387;48.722;9.110;2024-01-16T08:43:45;-2.50;99.90
10678;DHT22;5387;48.722;9.110;2024-01-16T08:46:12;-2.50;99.90
10678;DHT22;5387;48.722;9.110;2024-01-16T08:48:39;-2.40;99.90
10678;DHT22;5387;48.722;9.110;2024-01-16T08:51:08;-2.40;99.90
10678;DHT22;5387;48.722;9.110;2024-01-16T08:53:34;-2.30;99.90
10678;DHT22;5387;48.722;9.110;2024-01-16T08:56:01;-2.30;99.90
10678;DHT22;5387;48.722;9.110;2024-01-16T08:58:32;-2.20;99.90
10678;DHT22;5387;48.722;9.110;2024-01-16T09:01:03;-2.20;99.90
10678;DHT22;5387;48.722;9.110;2024-01-16T09:03:30;-2.10;99.90
10678;DHT22;5387;48.722;9.110;2024-01-16T09:05:57;-2.00;99.90
10678;DHT22;5387;48.722;9.110;2024-01-16T09:08:24;-2.00;99.90
10678;DHT22;5387;48.722;9.110;2024-01-16T09:10:52;-2.00;99.90
10678;DHT22;5387;48.722;9.110;2024-01-16T09:13:18;-1.90;99.90
10678;DHT22;5387;48.722;9.110;2024-01-16T09:15:47;-1.80;99.90
10678;DHT22;5387;48.722;9.110;2024-01-16T09:18:15;-1.80;99.90
10678;DHT22;5387;48.722;9.110;2024-01-16T09:20:42;-1.70;99.90
10678;DHT22;5387;48.722;9.110;2024-01-16T09:23:09;-1.70;99.90
10678;DHT22;5387;48.722;9.110;2024-01-16T09:25:36;-1.60;99.90
10678;DHT22;5387;48.722;9.110;2024-01-16T09:28:03;-1.50;99.90
10678;DHT22;5387;48.722;9.110;2024-01-16T09:30:30;-1.40;99.90
10678;DHT22;5387;48.722;9.110;2024-01-16T09:32:56;-1.30;99.90
10678;DHT22;5387;48.722;9.110;2024-01-16T09:35:25;-1.30;99.90
10678;DHT22;5387;48.722;9.110;2024-01-16T09:37:51;-1.10;99.90
10678;DHT22;5387;48.722;9.110;2024-01-16T09:40:18;-1.00;99.90
10678;DHT22;5387;48.722;9.110;2024-01-16T09:42:45;-1.00;99.90
10678;DHT22;5387;48.722;9.110;2024-01-16T09:45:14;-1.00;99.90
10678;DHT22;5387;48.722;9.110;2024-01-16T09:47:44;-1.00;99.90
10678;DHT22;5387;48.722;9.110;2024-01-16T09:50:12;-0.90;99.90
10678;DHT22;5387;48.722;9.110;2024-01-16T09:52:43;-0.80;99.90
10678;DHT22;5387;48.722;9.110;2024-01-16T09:55:10;-0.50;99.90
10678;DHT22;5387;48.722;9.110;2024-01-16T09:57:39;-0.30;99.90
10678;DHT22;5387;48.722;9.110;2024-01-16T10:00:07;-0.10;99.90
10678;DHT22;5387;48.722;9.110;2024-01-16T10:02:37;0.10;99.90
10678;DHT22;5387;48.722;9.110;2024-01-16T10:05:05;0.20;99.90
10678;DHT22;5387;48.722;9.110;2024-01-16T10:07:34;0.30;99.90
10678;DHT22;5387;48.722;9.110;2024-01-16T10:10:03;0.50;99.90
10678;DHT22;5387;48.722;9.110;2024-01-16T10:12:30;0.70;99.90
10678;DHT22;5387;48.722;9.110;2024-01-16T10:14:57;0.80;99.90
10678;DHT22;5387;48.722;9.110;2024-01-16T10:17:36;0.70;99.90
10678;DHT22;5387;48.722;9.110;2024-01-16T10:20:04;0.90;99.90
10678;DHT22;5387;48.722;9.110;2024-01-16T10:22:31;1.00;99.90
10678;DHT22;5387;48.722;9.110;2024-01-16T10:25:10;1.20;99.90
10678;DHT22;5387;48.722;9.110;2024-01-16T10:27:38;1.30;99.90
10678;DHT22;5387;48.722;9.110;2024-01-16T10:30:06;1.50;99.90
10678;DHT22;5387;48.722;9.110;2024-01-16T10:32:34;1.50;99.90
10678;DHT22;5387;48.722;9.110;2024-01-16T10:35:03;1.40;99.90
10678;DHT22;5387;48.722;9.110;2024-01-16T10:37:31;1.40;99.90
10678;DHT22;5387;48.722;9.110;2024-01-16T10:40:08;1.60;99.90
10678;DHT22;5387;48.722;9.110;2024-01-16T10:42:36;1.50;99.90
10678;DHT22;5387;48.722;9.110;2024-01-16T10:45:03;1.40;99.90
10678;DHT22;5387;48.722;9.110;2024-01-16T10:47:30;1.50;99.90
10678;DHT22;5387;48.722;9.110;2024-01-16T10:50:00;1.50;99.90
10678;DHT22;5387;48.722;9.110;2024-01-16T10:52:28;1.40;99.90
10678;DHT22;5387;48.722;9.110;2024-01-16T10:54:57;1.40;99.90
10678;DHT22;5387;48.722;9.110;2024-01-16T10:57:30;1.30;99.90
10678;DHT22;5387;48.722;9.110;2024-01-16T11:00:02;1.30;99.90
10678;DHT22;5387;48.722;9.110;2024-01-16T11:02:35;1.30;99.90
10678;DHT22;5387;48.722;9.110;2024-01-16T11:05:04;1.50;99.90
10678;DHT22;5387;48.722;9.110;2024-01-16T11:07:31;1.40;99.90
10678;DHT22;5387;48.722;9.110;2024-01-16T11:10:01;1.20;99.90
10678;DHT22;5387;48.722;9.110;2024-01-16T11:12:30;1.20;99.90
10678;DHT22;5387;48.722;9.110;2024-01-16T11:15:00;1.20;99.90
10678;DHT22;5387;48.722;9.110;2024-01-16T11:17:28;1.20;99.90
10678;DHT22;5387;48.722;9.110;2024-01-16T11:19:57;1.30;99.90
10678;DHT22;5387;48.722;9.110;2024-01-16T11:22:25;1.30;99.90
10678;DHT22;5387;48.722;9.110;2024-01-16T11:25:09;1.20;99.90
10678;DHT22;5387;48.722;9.110;2024-01-16T11:27:37;1.10;99.90
10678;DHT22;5387;48.722;9.110;2024-01-16T11:30:05;1.20;99.90
10678;DHT22;5387;48.722;9.110;2024-01-16T11:32:34;1.20;99.90
10678;DHT22;5387;48.722;9.110;2024-01-16T11:35:02;1.00;99.90
10678;DHT22;5387;48.722;9.110;2024-01-16T11:37:30;1.10;99.90
10678;DHT22;5387;48.722;9.110;2024-01-16T11:40:22;1.10;99.90
10678;DHT22;5387;48.722;9.110;2024-01-16T11:42:52;1.30;99.90
10678;DHT22;5387;48.722;9.110;2024-01-16T11:45:48;1.40;99.90
10678;DHT22;5387;48.722;9.110;2024-01-16T11:48:16;1.30;99.90
10678;DHT22;5387;48.722;9.110;2024-01-16T11:50:43;1.50;99.90
10678;DHT22;5387;48.722;9.110;2024-01-16T11:53:10;1.60;99.90
10678;DHT22;5387;48.722;9.110;2024-01-16T11:55:49;1.70;99.90
10678;DHT22;5387;48.722;9.110;2024-01-16T11:58:35;1.70;99.90
10678;DHT22;5387;48.722;9.110;2024-01-16T12:01:05;1.80;99.90
10678;DHT22;5387;48.722;9.110;2024-01-16T12:03:33;1.80;99.90
10678;DHT22;5387;48.722;9.110;2024-01-16T12:06:00;1.70;99.90
10678;DHT22;5387;48.722;9.110;2024-01-16T12:08:27;1.70;99.90
10678;DHT22;5387;48.722;9.110;2024-01-16T12:10:54;1.80;99.90
10678;DHT22;5387;48.722;9.110;2024-01-16T12:13:21;2.10;99.90
10678;DHT22;5387;48.722;9.110;2024-01-16T12:15:59;2.10;99.90
10678;DHT22;5387;48.722;9.110;2024-01-16T12:18:26;2.10;99.90
10678;DHT22;5387;48.722;9.110;2024-01-16T12:20:53;2.10;99.90
10678;DHT22;5387;48.722;9.110;2024-01-16T12:23:19;2.10;99.90
10678;DHT22;5387;48.722;9.110;2024-01-16T12:25:52;2.10;99.90
10678;DHT22;5387;48.722;9.110;2024-01-16T12:28:21;2.00;99.90
10678;DHT22;5387;48.722;9.110;2024-01-16T12:30:50;2.10;99.90
10678;DHT22;5387;48.722;9.110;2024-01-16T12:33:21;2.20;99.90
10678;DHT22;5387;48.722;9.110;2024-01-16T12:35:48;2.20;99.90
10678;DHT22;5387;48.722;9.110;2024-01-16T12:38:17;2.10;99.90
10678;DHT22;5387;48.722;9.110;2024-01-16T12:40:47;2.00;99.90
10678;DHT22;5387;48.722;9.110;2024-01-16T12:43:16;1.90;99.90
10678;DHT22;5387;48.722;9.110;2024-01-16T12:45:44;1.90;99.90
10678;DHT22;5387;48.722;9.110;2024-01-16T12:48:12;1.90;99.90
10678;DHT22;5387;48.722;9.110;2024-01-16T12:50:39;2.00;99.90
10678;DHT22;5387;48.722;9.110;2024-01-16T12:53:07;1.90;99.90
10678;DHT22;5387;48.722;9.110;2024-01-16T12:55:36;2.10;99.90
10678;DHT22;5387;48.722;9.110;2024-01-16T12:58:16;2.00;99.90
10678;DHT22;5387;48.722;9.110;2024-01-16T13:00:43;2.20;99.90
10678;DHT22;5387;48.722;9.110;2024-01-16T13:03:19;2.00;99.90
10678;DHT22;5387;48.722;9.110;2024-01-16T13:05:54;1.90;99.90
10678;DHT22;5387;48.722;9.110;2024-01-16T13:08:22;2.10;99.90
10678;DHT22;5387;48.722;9.110;2024-01-16T13:11:02;2.30;99.90
10678;DHT22;5387;48.722;9.110;2024-01-16T13:13:29;2.20;99.90
10678;DHT22;5387;48.722;9.110;2024-01-16T13:15:57;2.20;99.90
10678;DHT22;5387;48.722;9.110;2024-01-16T13:18:26;2.30;99.90
10678;DHT22;5387;48.722;9.110;2024-01-16T13:20:55;2.40;99.90
10678;DHT22;5387;48.722;9.110;2024-01-16T13:23:22;2.50;99.90
10678;DHT22;5387;48.722;9.110;2024-01-16T13:25:51;2.40;99.90
10678;DHT22;5387;48.722;9.110;2024-01-16T13:28:19;2.50;99.90
10678;DHT22;5387;48.722;9.110;2024-01-16T13:30:47;2.40;99.90
10678;DHT22;5387;48.722;9.110;2024-01-16T13:33:15;2.40;99.90
10678;DHT22;5387;48.722;9.110;2024-01-16T13:35:44;2.30;99.90
10678;DHT22;5387;48.722;9.110;2024-01-16T13:38:13;2.30;99.90
10678;DHT22;5387;48.722;9.110;2024-01-16T13:40:41;2.20;99.90
10678;DHT22;5387;48.722;9.110;2024-01-16T13:43:08;2.20;99.90
10678;DHT22;5387;48.722;9.110;2024-01-16T13:45:34;2.10;99.90
10678;DHT22;5387;48.722;9.110;2024-01-16T13:48:02;2.10;99.90
10678;DHT22;5387;48.722;9.110;2024-01-16T13:50:30;2.10;99.90
10678;DHT22;5387;48.722;9.110;2024-01-16T13:52:58;2.10;99.90
10678;DHT22;5387;48.722;9.110;2024-01-16T13:55:25;2.10;99.90
10678;DHT22;5387;48.722;9.110;2024-01-16T13:57:52;2.20;99.90
10678;DHT22;5387;48.722;9.110;2024-01-16T14:00:19;2.10;99.90
10678;DHT22;5387;48.722;9.110;2024-01-16T14:02:47;2.00;99.90
10678;DHT22;5387;48.722;9.110;2024-01-16T14:05:16;2.10;99.90
10678;DHT22;5387;48.722;9.110;2024-01-16T14:07:43;2.00;99.90
10678;DHT22;5387;48.722;9.110;2024-01-16T14:10:14;2.00;99.90
10678;DHT22;5387;48.722;9.110;2024-01-16T14:12:41;1.90;99.90
10678;DHT22;5387;48.722;9.110;2024-01-16T14:15:09;1.70;99.90
10678;DHT22;5387;48.722;9.110;2024-01-16T14:17:41;1.50;99.90
10678;DHT22;5387;48.722;9.110;2024-01-16T14:20:10;1.40;99.90
10678;DHT22;5387;48.722;9.110;2024-01-16T14:22:37;1.40;99.90
10678;DHT22;5387;48.722;9.110;2024-01-16T14:25:06;1.40;99.90
10678;DHT22;5387;48.722;9.110;2024-01-16T14:27:38;1.30;99.90
10678;DHT22;5387;48.722;9.110;2024-01-16T14:30:07;1.30;99.90
10678;DHT22;5387;48.722;9.110;2024-01-16T14:32:36;1.30;99.90
10678;DHT22;5387;48.722;9.110;2024-01-16T14:35:04;1.50;99.90
10678;DHT22;5387;48.722;9.110;2024-01-16T14:37:31;1.40;99.90
10678;DHT22;5387;48.722;9.110;2024-01-16T14:39:58;1.30;99.90
10678;DHT22;5387;48.722;9.110;2024-01-16T14:42:27;1.20;99.90
10678;DHT22;5387;48.722;9.110;2024-01-16T14:44:55;1.10;99.90
10678;DHT22;5387;48.722;9.110;2024-01-16T14:47:22;0.90;99.90
10678;DHT22;5387;48.722;9.110;2024-01-16T14:49:49;0.90;99.90
10678;DHT22;5387;48.722;9.110;2024-01-16T14:52:20;0.90;99.90
10678;DHT22;5387;48.722;9.110;2024-01-16T14:54:46;0.90;99.90
10678;DHT22;5387;48.722;9.110;2024-01-16T14:57:13;0.90;99.90
10678;DHT22;5387;48.722;9.110;2024-01-16T14:59:40;0.90;99.90
10678;DHT22;5387;48.722;9.110;2024-01-16T15:02:08;0.80;99.90
10678;DHT22;5387;48.722;9.110;2024-01-16T15:04:39;0.80;99.90
10678;DHT22;5387;48.722;9.110;2024-01-16T15:07:05;0.80;99.90
10678;DHT22;5387;48.722;9.110;2024-01-16T15:09:33;0.70;99.90
10678;DHT22;5387;48.722;9.110;2024-01-16T15:12:04;0.70;99.90
10678;DHT22;5387;48.722;9.110;2024-01-16T15:14:31;0.60;99.90
10678;DHT22;5387;48.722;9.110;2024-01-16T15:16:57;0.50;99.90
10678;DHT22;5387;48.722;9.110;2024-01-16T15:19:26;0.50;99.90
10678;DHT22;5387;48.722;9.110;2024-01-16T15:21:53;0.50;99.90
10678;DHT22;5387;48.722;9.110;2024-01-16T15:24:20;0.40;99.90
10678;DHT22;5387;48.722;9.110;2024-01-16T15:26:52;0.40;99.90
10678;DHT22;5387;48.722;9.110;2024-01-16T15:29:18;0.30;99.90
10678;DHT22;5387;48.722;9.110;2024-01-16T15:31:45;0.30;99.90
10678;DHT22;5387;48.722;9.110;2024-01-16T15:34:12;0.20;99.90
10678;DHT22;5387;48.722;9.110;2024-01-16T15:36:40;0.10;99.90
10678;DHT22;5387;48.722;9.110;2024-01-16T15:39:07;-0.10;99.90
10678;DHT22;5387;48.722;9.110;2024-01-16T15:41:34;-0.20;99.90
10678;DHT22;5387;48.722;9.110;2024-01-16T15:44:01;-0.30;99.90
10678;DHT22;5387;48.722;9.110;2024-01-16T15:46:28;-0.30;99.90
10678;DHT22;5387;48.722;9.110;2024-01-16T15:48:55;-0.40;99.90
10678;DHT22;5387;48.722;9.110;2024-01-16T15:51:22;-0.50;99.90
10678;DHT22;5387;48.722;9.110;2024-01-16T15:53:50;-0.60;99.90
10678;DHT22;5387;48.722;9.110;2024-01-16T15:56:17;-0.70;99.90